sensor_id;sensor_type;location;lat;lon;timestamp;P1;durP1;ratioP1;P2;durP2;ratioP2
64854;SDS011;51321;50.428;8.378;2024-01-27T00:01:32;6.00;;;1.45;;
64854;SDS011;51321;50.428;8.378;2024-01-27T00:04:13;11.48;;;1.65;;
64854;SDS011;51321;50.428;8.378;2024-01-27T00:06:53;13.93;;;2.25;;
64854;SDS011;51321;50.428;8.378;2024-01-27T00:09:35;8.45;;;1.45;;
64854;SDS011;51321;50.428;8.378;2024-01-27T00:12:16;7.10;;;1.80;;
64854;SDS011;51321;50.428;8.378;2024-01-27T00:14:56;14.15;;;1.83;;
64854;SDS011;51321;50.428;8.378;2024-01-27T00:17:37;11.25;;;1.92;;
64854;SDS011;51321;50.428;8.378;2024-01-27T00:20:18;19.27;;;2.55;;
64854;SDS011;51321;50.428;8.378;2024-01-27T00:22:58;10.35;;;1.80;;
64854;SDS011;51321;50.428;8.378;2024-01-27T00:25:40;11.32;;;2.10;;
64854;SDS011;51321;50.428;8.378;2024-01-27T00:28:21;14.20;;;1.73;;
64854;SDS011;51321;50.428;8.378;2024-01-27T00:31:01;9.43;;;1.30;;
64854;SDS011;51321;50.428;8.378;2024-01-27T00:33:42;13.18;;;2.00;;
64854;SDS011;51321;50.428;8.378;2024-01-27T00:36:22;8.13;;;1.55;;
64854;SDS011;51321;50.428;8.378;2024-01-27T00:39:03;12.52;;;1.75;;
64854;SDS011;51321;50.428;8.378;2024-01-27T00:41:46;11.63;;;1.75;;
64854;SDS011;51321;50.428;8.378;2024-01-27T00:44:27;9.67;;;2.00;;
64854;SDS011;51321;50.428;8.378;2024-01-27T00:47:07;10.43;;;1.75;;
64854;SDS011;51321;50.428;8.378;2024-01-27T00:49:48;7.82;;;1.70;;
64854;SDS011;51321;50.428;8.378;2024-01-27T00:52:28;10.63;;;2.40;;
64854;SDS011;51321;50.428;8.378;2024-01-27T00:55:09;8.02;;;1.30;;
64854;SDS011;51321;50.428;8.378;2024-01-27T00:57:51;10.80;;;1.63;;
64854;SDS011;51321;50.428;8.378;2024-01-27T01:00:32;10.80;;;2.17;;
64854;SDS011;51321;50.428;8.378;2024-01-27T01:03:12;9.98;;;1.52;;
64854;SDS011;51321;50.428;8.378;2024-01-27T01:05:53;9.07;;;1.50;;
64854;SDS011;51321;50.428;8.378;2024-01-27T01:08:33;11.02;;;2.13;;
64854;SDS011;51321;50.428;8.378;2024-01-27T01:11:13;13.88;;;1.73;;
64854;SDS011;51321;50.428;8.378;2024-01-27T01:13:55;12.23;;;1.92;;
64854;SDS011;51321;50.428;8.378;2024-01-27T01:16:36;5.23;;;1.67;;
64854;SDS011;51321;50.428;8.378;2024-01-27T01:19:17;9.90;;;2.38;;
64854;SDS011;51321;50.428;8.378;2024-01-27T01:21:57;11.15;;;2.17;;
64854;SDS011;51321;50.428;8.378;2024-01-27T01:24:38;7.88;;;1.60;;
64854;SDS011;51321;50.428;8.378;2024-01-27T01:27:18;10.10;;;2.20;;
64854;SDS011;51321;50.428;8.378;2024-01-27T01:30:01;9.55;;;1.75;;
64854;SDS011;51321;50.428;8.378;2024-01-27T01:32:41;12.65;;;1.80;;
64854;SDS011;51321;50.428;8.378;2024-01-27T01:35:22;10.05;;;1.48;;
64854;SDS011;51321;50.428;8.378;2024-01-27T01:38:03;6.45;;;1.50;;
64854;SDS011;51321;50.428;8.378;2024-01-27T01:40:43;9.80;;;2.20;;
64854;SDS011;51321;50.428;8.378;2024-01-27T01:43:24;4.28;;;1.42;;
64854;SDS011;51321;50.428;8.378;2024-01-27T01:46:06;8.45;;;1.73;;
64854;SDS011;51321;50.428;8.378;2024-01-27T01:48:47;6.93;;;1.50;;
64854;SDS011;51321;50.428;8.378;2024-01-27T01:51:27;6.32;;;1.42;;
64854;SDS011;51321;50.428;8.378;2024-01-27T01:54:08;9.43;;;1.50;;
64854;SDS011;51321;50.428;8.378;2024-01-27T01:56:50;9.82;;;1.52;;
64854;SDS011;51321;50.428;8.378;2024-01-27T01:59:30;10.98;;;1.73;;
64854;SDS011;51321;50.428;8.378;2024-01-27T02:02:13;11.88;;;2.13;;
64854;SDS011;51321;50.428;8.378;2024-01-27T02:04:54;14.10;;;3.15;;
64854;SDS011;51321;50.428;8.378;2024-01-27T02:07:34;13.52;;;1.77;;
64854;SDS011;51321;50.428;8.378;2024-01-27T02:10:15;12.30;;;1.90;;
64854;SDS011;51321;50.428;8.378;2024-01-27T02:12:56;11.15;;;1.85;;
64854;SDS011;51321;50.428;8.378;2024-01-27T02:15:37;11.73;;;2.13;;
64854;SDS011;51321;50.428;8.378;2024-01-27T02:18:19;12.40;;;2.25;;
64854;SDS011;51321;50.428;8.378;2024-01-27T02:20:59;9.70;;;1.95;;
64854;SDS011;51321;50.428;8.378;2024-01-27T02:23:40;13.27;;;2.05;;
64854;SDS011;51321;50.428;8.378;2024-01-27T02:26:22;9.02;;;2.05;;
64854;SDS011;51321;50.428;8.378;2024-01-27T02:29:02;13.32;;;1.83;;
64854;SDS011;51321;50.428;8.378;2024-01-27T02:31:43;9.52;;;1.80;;
64854;SDS011;51321;50.428;8.378;2024-01-27T02:34:23;14.23;;;2.22;;
64854;SDS011;51321;50.428;8.378;2024-01-27T02:37:04;17.10;;;2.47;;
64854;SDS011;51321;50.428;8.378;2024-01-27T02:39:44;11.93;;;2.65;;
64854;SDS011;51321;50.428;8.378;2024-01-27T02:42:26;10.95;;;1.98;;
64854;SDS011;51321;50.428;8.378;2024-01-27T02:45:07;10.27;;;1.80;;
64854;SDS011;51321;50.428;8.378;2024-01-27T02:47:48;15.35;;;2.33;;
64854;SDS011;51321;50.428;8.378;2024-01-27T02:50:30;8.40;;;2.20;;
64854;SDS011;51321;50.428;8.378;2024-01-27T02:53:13;9.48;;;1.52;;
64854;SDS011;51321;50.428;8.378;2024-01-27T02:55:55;7.25;;;1.65;;
64854;SDS011;51321;50.428;8.378;2024-01-27T02:58:37;10.32;;;1.77;;
64854;SDS011;51321;50.428;8.378;2024-01-27T03:01:17;8.00;;;1.45;;
64854;SDS011;51321;50.428;8.378;2024-01-27T03:03:58;10.60;;;1.90;;
64854;SDS011;51321;50.428;8.378;2024-01-27T03:06:38;8.30;;;1.70;;
64854;SDS011;51321;50.428;8.378;2024-01-27T03:09:18;11.77;;;2.38;;
64854;SDS011;51321;50.428;8.378;2024-01-27T03:11:59;9.77;;;2.17;;
64854;SDS011;51321;50.428;8.378;2024-01-27T03:14:41;11.50;;;2.13;;
64854;SDS011;51321;50.428;8.378;2024-01-27T03:17:21;11.70;;;1.83;;
64854;SDS011;51321;50.428;8.378;2024-01-27T03:20:02;12.13;;;1.85;;
64854;SDS011;51321;50.428;8.378;2024-01-27T03:22:43;10.48;;;1.70;;
64854;SDS011;51321;50.428;8.378;2024-01-27T03:25:24;12.55;;;1.67;;
64854;SDS011;51321;50.428;8.378;2024-01-27T03:28:05;12.57;;;1.90;;
64854;SDS011;51321;50.428;8.378;2024-01-27T03:30:47;15.45;;;2.63;;
64854;SDS011;51321;50.428;8.378;2024-01-27T03:33:28;10.85;;;2.05;;
64854;SDS011;51321;50.428;8.378;2024-01-27T03:36:09;6.25;;;1.42;;
64854;SDS011;51321;50.428;8.378;2024-01-27T03:38:51;9.77;;;2.47;;
64854;SDS011;51321;50.428;8.378;2024-01-27T03:41:31;13.50;;;2.30;;
64854;SDS011;51321;50.428;8.378;2024-01-27T03:44:12;8.70;;;1.42;;
64854;SDS011;51321;50.428;8.378;2024-01-27T03:46:54;9.73;;;2.40;;
64854;SDS011;51321;50.428;8.378;2024-01-27T03:49:34;11.47;;;2.50;;
64854;SDS011;51321;50.428;8.378;2024-01-27T03:52:15;9.85;;;2.42;;
64854;SDS011;51321;50.428;8.378;2024-01-27T03:54:55;12.25;;;1.98;;
64854;SDS011;51321;50.428;8.378;2024-01-27T03:57:36;14.88;;;2.22;;
64854;SDS011;51321;50.428;8.378;2024-01-27T04:00:17;9.75;;;2.08;;
64854;SDS011;51321;50.428;8.378;2024-01-27T04:02:59;15.02;;;2.78;;
64854;SDS011;51321;50.428;8.378;2024-01-27T04:05:40;10.48;;;2.25;;
64854;SDS011;51321;50.428;8.378;2024-01-27T04:08:20;10.15;;;2.22;;
64854;SDS011;51321;50.428;8.378;2024-01-27T04:11:00;8.65;;;2.35;;
64854;SDS011;51321;50.428;8.378;2024-01-27T04:13:41;7.97;;;2.08;;
64854;SDS011;51321;50.428;8.378;2024-01-27T04:16:22;10.50;;;2.17;;
64854;SDS011;51321;50.428;8.378;2024-01-27T04:19:03;10.40;;;2.60;;
64854;SDS011;51321;50.428;8.378;2024-01-27T04:21:44;8.95;;;1.85;;
64854;SDS011;51321;50.428;8.378;2024-01-27T04:24:24;6.88;;;1.63;;
64854;SDS011;51321;50.428;8.378;2024-01-27T04:27:04;12.05;;;2.13;;
64854;SDS011;51321;50.428;8.378;2024-01-27T04:29:45;10.65;;;2.00;;
64854;SDS011;51321;50.428;8.378;2024-01-27T04:32:26;8.68;;;2.25;;
64854;SDS011;51321;50.428;8.378;2024-01-27T04:35:09;12.05;;;1.98;;
64854;SDS011;51321;50.428;8.378;2024-01-27T04:37:50;10.82;;;1.85;;
64854;SDS011;51321;50.428;8.378;2024-01-27T04:40:31;10.38;;;1.80;;
64854;SDS011;51321;50.428;8.378;2024-01-27T04:43:14;11.43;;;1.55;;
64854;SDS011;51321;50.428;8.378;2024-01-27T04:45:55;12.50;;;2.00;;
64854;SDS011;51321;50.428;8.378;2024-01-27T04:48:35;8.90;;;2.05;;
64854;SDS011;51321;50.428;8.378;2024-01-27T04:51:17;9.38;;;1.90;;
64854;SDS011;51321;50.428;8.378;2024-01-27T04:53:58;6.75;;;1.98;;
64854;SDS011;51321;50.428;8.378;2024-01-27T04:56:38;8.77;;;2.15;;
64854;SDS011;51321;50.428;8.378;2024-01-27T04:59:19;7.18;;;1.65;;
64854;SDS011;51321;50.428;8.378;2024-01-27T05:01:59;12.07;;;1.23;;
64854;SDS011;51321;50.428;8.378;2024-01-27T05:04:40;8.50;;;1.83;;
64854;SDS011;51321;50.428;8.378;2024-01-27T05:07:21;8.50;;;1.30;;
64854;SDS011;51321;50.428;8.378;2024-01-27T05:10:02;10.68;;;1.80;;
64854;SDS011;51321;50.428;8.378;2024-01-27T05:12:43;11.98;;;2.20;;
64854;SDS011;51321;50.428;8.378;2024-01-27T05:15:23;7.75;;;1.33;;
64854;SDS011;51321;50.428;8.378;2024-01-27T05:18:04;10.10;;;1.65;;
64854;SDS011;51321;50.428;8.378;2024-01-27T05:20:45;14.10;;;1.83;;
64854;SDS011;51321;50.428;8.378;2024-01-27T05:23:27;11.77;;;1.80;;
64854;SDS011;51321;50.428;8.378;2024-01-27T05:26:07;9.07;;;1.53;;
64854;SDS011;51321;50.428;8.378;2024-01-27T05:28:49;9.93;;;1.73;;
64854;SDS011;51321;50.428;8.378;2024-01-27T05:31:30;6.32;;;2.55;;
64854;SDS011;51321;50.428;8.378;2024-01-27T05:34:10;16.92;;;2.13;;
64854;SDS011;51321;50.428;8.378;2024-01-27T05:36:50;9.90;;;1.83;;
64854;SDS011;51321;50.428;8.378;2024-01-27T05:39:32;8.48;;;1.98;;
64854;SDS011;51321;50.428;8.378;2024-01-27T05:42:13;12.35;;;2.03;;
64854;SDS011;51321;50.428;8.378;2024-01-27T05:44:53;10.88;;;2.15;;
64854;SDS011;51321;50.428;8.378;2024-01-27T05:47:33;7.22;;;2.10;;
64854;SDS011;51321;50.428;8.378;2024-01-27T05:50:14;11.90;;;1.70;;
64854;SDS011;51321;50.428;8.378;2024-01-27T05:52:55;9.02;;;1.83;;
64854;SDS011;51321;50.428;8.378;2024-01-27T05:55:37;9.50;;;1.92;;
64854;SDS011;51321;50.428;8.378;2024-01-27T05:58:18;10.18;;;2.35;;
64854;SDS011;51321;50.428;8.378;2024-01-27T06:01:00;11.32;;;3.50;;
64854;SDS011;51321;50.428;8.378;2024-01-27T06:03:40;8.23;;;2.78;;
64854;SDS011;51321;50.428;8.378;2024-01-27T06:06:22;9.48;;;2.80;;
64854;SDS011;51321;50.428;8.378;2024-01-27T06:09:03;10.40;;;3.03;;
64854;SDS011;51321;50.428;8.378;2024-01-27T06:11:44;12.80;;;3.63;;
64854;SDS011;51321;50.428;8.378;2024-01-27T06:14:25;12.27;;;1.85;;
64854;SDS011;51321;50.428;8.378;2024-01-27T06:17:05;9.35;;;2.28;;
64854;SDS011;51321;50.428;8.378;2024-01-27T06:19:46;10.18;;;2.40;;
64854;SDS011;51321;50.428;8.378;2024-01-27T06:22:26;12.20;;;2.25;;
64854;SDS011;51321;50.428;8.378;2024-01-27T06:25:07;8.95;;;1.83;;
64854;SDS011;51321;50.428;8.378;2024-01-27T06:27:50;9.27;;;2.30;;
64854;SDS011;51321;50.428;8.378;2024-01-27T06:30:30;8.05;;;2.80;;
64854;SDS011;51321;50.428;8.378;2024-01-27T06:33:11;9.55;;;2.00;;
64854;SDS011;51321;50.428;8.378;2024-01-27T06:35:51;11.75;;;2.63;;
64854;SDS011;51321;50.428;8.378;2024-01-27T06:38:32;9.27;;;2.17;;
64854;SDS011;51321;50.428;8.378;2024-01-27T06:41:12;9.57;;;2.67;;
64854;SDS011;51321;50.428;8.378;2024-01-27T06:43:54;9.90;;;2.80;;
64854;SDS011;51321;50.428;8.378;2024-01-27T06:46:34;12.63;;;2.78;;
64854;SDS011;51321;50.428;8.378;2024-01-27T06:49:15;13.00;;;2.38;;
64854;SDS011;51321;50.428;8.378;2024-01-27T06:51:55;11.93;;;3.70;;
64854;SDS011;51321;50.428;8.378;2024-01-27T06:54:36;12.55;;;2.55;;
64854;SDS011;51321;50.428;8.378;2024-01-27T06:57:20;8.95;;;2.20;;
64854;SDS011;51321;50.428;8.378;2024-01-27T07:00:03;10.15;;;3.05;;
64854;SDS011;51321;50.428;8.378;2024-01-27T07:05:24;16.95;;;5.57;;
64854;SDS011;51321;50.428;8.378;2024-01-27T07:08:05;11.90;;;4.78;;
64854;SDS011;51321;50.428;8.378;2024-01-27T07:10:46;18.83;;;8.38;;
64854;SDS011;51321;50.428;8.378;2024-01-27T07:13:27;7.63;;;4.05;;
64854;SDS011;51321;50.428;8.378;2024-01-27T07:16:10;17.98;;;5.55;;
64854;SDS011;51321;50.428;8.378;2024-01-27T07:18:50;13.50;;;3.83;;
64854;SDS011;51321;50.428;8.378;2024-01-27T07:21:31;11.80;;;4.00;;
64854;SDS011;51321;50.428;8.378;2024-01-27T07:24:11;8.35;;;2.55;;
64854;SDS011;51321;50.428;8.378;2024-01-27T07:26:51;8.02;;;3.00;;
64854;SDS011;51321;50.428;8.378;2024-01-27T07:29:32;12.98;;;3.13;;
64854;SDS011;51321;50.428;8.378;2024-01-27T07:32:14;7.65;;;2.20;;
64854;SDS011;51321;50.428;8.378;2024-01-27T07:34:55;7.90;;;2.20;;
64854;SDS011;51321;50.428;8.378;2024-01-27T07:37:35;12.35;;;2.08;;
64854;SDS011;51321;50.428;8.378;2024-01-27T07:40:16;14.02;;;2.03;;
64854;SDS011;51321;50.428;8.378;2024-01-27T07:42:56;8.85;;;2.13;;
64854;SDS011;51321;50.428;8.378;2024-01-27T07:45:37;8.95;;;2.05;;
64854;SDS011;51321;50.428;8.378;2024-01-27T07:48:18;17.63;;;2.35;;
64854;SDS011;51321;50.428;8.378;2024-01-27T07:50:59;6.63;;;2.40;;
64854;SDS011;51321;50.428;8.378;2024-01-27T07:53:39;6.18;;;1.95;;
64854;SDS011;51321;50.428;8.378;2024-01-27T07:56:20;10.98;;;1.88;;
64854;SDS011;51321;50.428;8.378;2024-01-27T07:59:00;7.72;;;2.10;;
64854;SDS011;51321;50.428;8.378;2024-01-27T08:01:41;11.23;;;2.28;;
64854;SDS011;51321;50.428;8.378;2024-01-27T08:04:23;10.63;;;2.42;;
64854;SDS011;51321;50.428;8.378;2024-01-27T08:07:03;10.70;;;2.80;;
64854;SDS011;51321;50.428;8.378;2024-01-27T08:09:48;8.00;;;2.20;;
64854;SDS011;51321;50.428;8.378;2024-01-27T08:12:29;8.45;;;2.35;;
64854;SDS011;51321;50.428;8.378;2024-01-27T08:15:09;11.75;;;3.35;;
64854;SDS011;51321;50.428;8.378;2024-01-27T08:17:49;11.73;;;3.75;;
64854;SDS011;51321;50.428;8.378;2024-01-27T08:20:31;8.80;;;2.60;;
64854;SDS011;51321;50.428;8.378;2024-01-27T08:23:11;8.52;;;3.63;;
64854;SDS011;51321;50.428;8.378;2024-01-27T08:25:52;14.40;;;4.30;;
64854;SDS011;51321;50.428;8.378;2024-01-27T08:28:32;9.82;;;2.67;;
64854;SDS011;51321;50.428;8.378;2024-01-27T08:31:13;11.18;;;3.20;;
64854;SDS011;51321;50.428;8.378;2024-01-27T08:33:54;11.95;;;3.40;;
64854;SDS011;51321;50.428;8.378;2024-01-27T08:36:35;13.88;;;2.90;;
64854;SDS011;51321;50.428;8.378;2024-01-27T08:41:58;8.02;;;3.45;;
64854;SDS011;51321;50.428;8.378;2024-01-27T08:44:38;11.90;;;2.47;;
64854;SDS011;51321;50.428;8.378;2024-01-27T08:47:19;8.93;;;2.72;;
64854;SDS011;51321;50.428;8.378;2024-01-27T08:50:00;7.07;;;1.92;;
64854;SDS011;51321;50.428;8.378;2024-01-27T08:52:42;10.07;;;2.95;;
64854;SDS011;51321;50.428;8.378;2024-01-27T08:55:24;12.55;;;3.15;;
64854;SDS011;51321;50.428;8.378;2024-01-27T08:58:05;13.43;;;3.08;;
64854;SDS011;51321;50.428;8.378;2024-01-27T09:00:45;12.80;;;2.80;;
64854;SDS011;51321;50.428;8.378;2024-01-27T09:03:26;7.80;;;2.50;;
64854;SDS011;51321;50.428;8.378;2024-01-27T09:06:06;17.23;;;3.25;;
64854;SDS011;51321;50.428;8.378;2024-01-27T09:08:49;10.77;;;3.42;;
64854;SDS011;51321;50.428;8.378;2024-01-27T09:11:29;9.70;;;3.38;;
64854;SDS011;51321;50.428;8.378;2024-01-27T09:14:11;8.98;;;2.08;;
64854;SDS011;51321;50.428;8.378;2024-01-27T09:16:51;8.73;;;2.60;;
64854;SDS011;51321;50.428;8.378;2024-01-27T09:19:32;6.30;;;2.47;;
64854;SDS011;51321;50.428;8.378;2024-01-27T09:22:12;7.88;;;2.78;;
64854;SDS011;51321;50.428;8.378;2024-01-27T09:24:54;13.85;;;6.25;;
64854;SDS011;51321;50.428;8.378;2024-01-27T09:27:35;14.73;;;7.33;;
64854;SDS011;51321;50.428;8.378;2024-01-27T09:30:15;7.63;;;3.40;;
64854;SDS011;51321;50.428;8.378;2024-01-27T09:32:56;13.85;;;4.78;;
64854;SDS011;51321;50.428;8.378;2024-01-27T09:35:36;11.63;;;3.42;;
64854;SDS011;51321;50.428;8.378;2024-01-27T09:38:17;11.05;;;3.75;;
64854;SDS011;51321;50.428;8.378;2024-01-27T09:40:59;12.88;;;5.50;;
64854;SDS011;51321;50.428;8.378;2024-01-27T09:43:40;12.47;;;4.47;;
64854;SDS011;51321;50.428;8.378;2024-01-27T09:46:23;9.60;;;4.75;;
64854;SDS011;51321;50.428;8.378;2024-01-27T09:49:03;11.65;;;3.70;;
64854;SDS011;51321;50.428;8.378;2024-01-27T09:51:45;8.07;;;2.22;;
64854;SDS011;51321;50.428;8.378;2024-01-27T09:54:26;13.27;;;3.88;;
64854;SDS011;51321;50.428;8.378;2024-01-27T09:57:08;8.55;;;2.17;;
64854;SDS011;51321;50.428;8.378;2024-01-27T09:59:49;9.00;;;2.55;;
64854;SDS011;51321;50.428;8.378;2024-01-27T10:02:30;10.25;;;2.20;;
64854;SDS011;51321;50.428;8.378;2024-01-27T10:05:11;8.48;;;2.67;;
64854;SDS011;51321;50.428;8.378;2024-01-27T10:07:53;9.07;;;2.53;;
64854;SDS011;51321;50.428;8.378;2024-01-27T10:10:34;8.30;;;2.10;;
64854;SDS011;51321;50.428;8.378;2024-01-27T10:13:16;9.27;;;2.28;;
64854;SDS011;51321;50.428;8.378;2024-01-27T10:18:41;5.50;;;1.88;;
64854;SDS011;51321;50.428;8.378;2024-01-27T10:21:21;10.77;;;2.72;;
64854;SDS011;51321;50.428;8.378;2024-01-27T10:24:05;8.25;;;2.25;;
64854;SDS011;51321;50.428;8.378;2024-01-27T10:26:46;10.00;;;1.93;;
64854;SDS011;51321;50.428;8.378;2024-01-27T10:29:29;10.80;;;2.38;;
64854;SDS011;51321;50.428;8.378;2024-01-27T10:32:10;8.10;;;1.92;;
64854;SDS011;51321;50.428;8.378;2024-01-27T10:35:00;10.80;;;2.25;;
64854;SDS011;51321;50.428;8.378;2024-01-27T10:37:41;8.52;;;2.10;;
64854;SDS011;51321;50.428;8.378;2024-01-27T10:40:23;7.03;;;1.77;;
64854;SDS011;51321;50.428;8.378;2024-01-27T10:43:05;9.70;;;1.85;;
64854;SDS011;51321;50.428;8.378;2024-01-27T10:45:48;6.88;;;1.98;;
64854;SDS011;51321;50.428;8.378;2024-01-27T10:48:29;11.43;;;2.30;;
64854;SDS011;51321;50.428;8.378;2024-01-27T10:51:10;14.65;;;2.45;;
64854;SDS011;51321;50.428;8.378;2024-01-27T10:53:51;10.98;;;1.85;;
64854;SDS011;51321;50.428;8.378;2024-01-27T10:56:35;9.23;;;1.88;;
64854;SDS011;51321;50.428;8.378;2024-01-27T10:59:18;8.98;;;1.95;;
64854;SDS011;51321;50.428;8.378;2024-01-27T11:02:02;8.77;;;1.58;;
64854;SDS011;51321;50.428;8.378;2024-01-27T11:04:45;6.32;;;1.63;;
64854;SDS011;51321;50.428;8.378;2024-01-27T11:07:28;6.80;;;1.58;;
64854;SDS011;51321;50.428;8.378;2024-01-27T11:10:11;8.18;;;1.48;;
64854;SDS011;51321;50.428;8.378;2024-01-27T11:12:52;13.95;;;2.45;;
64854;SDS011;51321;50.428;8.378;2024-01-27T11:15:33;11.77;;;1.30;;
64854;SDS011;51321;50.428;8.378;2024-01-27T11:18:15;12.90;;;1.80;;
64854;SDS011;51321;50.428;8.378;2024-01-27T11:20:56;7.20;;;1.75;;
64854;SDS011;51321;50.428;8.378;2024-01-27T11:23:38;11.48;;;1.63;;
64854;SDS011;51321;50.428;8.378;2024-01-27T11:26:20;12.00;;;2.30;;
64854;SDS011;51321;50.428;8.378;2024-01-27T11:29:05;11.93;;;2.10;;
64854;SDS011;51321;50.428;8.378;2024-01-27T11:31:46;13.02;;;3.05;;
64854;SDS011;51321;50.428;8.378;2024-01-27T11:34:30;10.18;;;3.05;;
64854;SDS011;51321;50.428;8.378;2024-01-27T11:37:21;10.07;;;2.28;;
64854;SDS011;51321;50.428;8.378;2024-01-27T11:40:03;12.93;;;4.03;;
64854;SDS011;51321;50.428;8.378;2024-01-27T11:42:53;12.75;;;2.97;;
64854;SDS011;51321;50.428;8.378;2024-01-27T11:45:34;10.43;;;2.20;;
64854;SDS011;51321;50.428;8.378;2024-01-27T11:48:14;14.20;;;2.75;;
64854;SDS011;51321;50.428;8.378;2024-01-27T11:51:06;13.10;;;2.55;;
64854;SDS011;51321;50.428;8.378;2024-01-27T11:53:48;13.38;;;3.17;;
64854;SDS011;51321;50.428;8.378;2024-01-27T11:56:29;16.45;;;5.82;;
64854;SDS011;51321;50.428;8.378;2024-01-27T11:59:10;12.68;;;4.18;;
64854;SDS011;51321;50.428;8.378;2024-01-27T12:01:50;11.98;;;3.08;;
64854;SDS011;51321;50.428;8.378;2024-01-27T12:04:31;8.63;;;3.90;;
64854;SDS011;51321;50.428;8.378;2024-01-27T12:07:14;15.88;;;4.47;;
64854;SDS011;51321;50.428;8.378;2024-01-27T12:09:57;13.25;;;3.30;;
64854;SDS011;51321;50.428;8.378;2024-01-27T12:12:38;11.20;;;2.35;;
64854;SDS011;51321;50.428;8.378;2024-01-27T12:15:19;12.93;;;2.97;;
64854;SDS011;51321;50.428;8.378;2024-01-27T12:18:00;11.63;;;2.20;;
64854;SDS011;51321;50.428;8.378;2024-01-27T12:20:42;7.68;;;1.98;;
64854;SDS011;51321;50.428;8.378;2024-01-27T12:23:23;9.63;;;2.00;;
64854;SDS011;51321;50.428;8.378;2024-01-27T12:26:04;6.75;;;1.67;;
64854;SDS011;51321;50.428;8.378;2024-01-27T12:28:45;9.52;;;1.80;;
64854;SDS011;51321;50.428;8.378;2024-01-27T12:31:26;5.63;;;1.23;;
64854;SDS011;51321;50.428;8.378;2024-01-27T12:34:07;14.10;;;3.35;;
64854;SDS011;51321;50.428;8.378;2024-01-27T12:36:48;14.18;;;1.95;;
64854;SDS011;51321;50.428;8.378;2024-01-27T12:39:31;15.45;;;2.67;;
64854;SDS011;51321;50.428;8.378;2024-01-27T12:42:12;12.60;;;2.58;;
64854;SDS011;51321;50.428;8.378;2024-01-27T12:44:53;15.45;;;2.42;;
64854;SDS011;51321;50.428;8.378;2024-01-27T12:47:33;12.82;;;2.38;;
64854;SDS011;51321;50.428;8.378;2024-01-27T12:50:13;12.30;;;1.92;;
64854;SDS011;51321;50.428;8.378;2024-01-27T12:52:55;9.05;;;1.35;;
64854;SDS011;51321;50.428;8.378;2024-01-27T12:55:37;7.95;;;1.67;;
64854;SDS011;51321;50.428;8.378;2024-01-27T12:58:18;4.90;;;1.00;;
64854;SDS011;51321;50.428;8.378;2024-01-27T13:00:59;12.07;;;2.25;;
64854;SDS011;51321;50.428;8.378;2024-01-27T13:03:39;12.45;;;2.17;;
64854;SDS011;51321;50.428;8.378;2024-01-27T13:06:20;8.32;;;2.03;;
64854;SDS011;51321;50.428;8.378;2024-01-27T13:09:01;9.57;;;1.83;;
64854;SDS011;51321;50.428;8.378;2024-01-27T13:11:43;9.10;;;1.52;;
64854;SDS011;51321;50.428;8.378;2024-01-27T13:14:24;10.73;;;2.53;;
64854;SDS011;51321;50.428;8.378;2024-01-27T13:17:05;10.27;;;2.10;;
64854;SDS011;51321;50.428;8.378;2024-01-27T13:19:45;12.23;;;3.90;;
64854;SDS011;51321;50.428;8.378;2024-01-27T13:22:26;12.25;;;6.07;;
64854;SDS011;51321;50.428;8.378;2024-01-27T13:25:06;11.32;;;4.25;;
64854;SDS011;51321;50.428;8.378;2024-01-27T13:27:48;10.57;;;6.00;;
64854;SDS011;51321;50.428;8.378;2024-01-27T13:30:29;12.02;;;2.92;;
64854;SDS011;51321;50.428;8.378;2024-01-27T13:33:09;10.88;;;2.28;;
64854;SDS011;51321;50.428;8.378;2024-01-27T13:35:50;8.57;;;2.20;;
64854;SDS011;51321;50.428;8.378;2024-01-27T13:38:30;8.88;;;2.28;;
64854;SDS011;51321;50.428;8.378;2024-01-27T13:41:12;11.73;;;2.70;;
64854;SDS011;51321;50.428;8.378;2024-01-27T13:43:54;7.25;;;2.13;;
64854;SDS011;51321;50.428;8.378;2024-01-27T13:46:35;9.38;;;1.88;;
64854;SDS011;51321;50.428;8.378;2024-01-27T13:49:15;9.73;;;2.28;;
64854;SDS011;51321;50.428;8.378;2024-01-27T13:51:56;7.93;;;1.60;;
64854;SDS011;51321;50.428;8.378;2024-01-27T13:54:36;10.95;;;1.60;;
64854;SDS011;51321;50.428;8.378;2024-01-27T13:57:17;11.82;;;2.42;;
64854;SDS011;51321;50.428;8.378;2024-01-27T13:59:59;7.65;;;1.35;;
64854;SDS011;51321;50.428;8.378;2024-01-27T14:02:40;12.63;;;2.33;;
64854;SDS011;51321;50.428;8.378;2024-01-27T14:05:20;6.65;;;1.38;;
64854;SDS011;51321;50.428;8.378;2024-01-27T14:08:00;8.30;;;1.48;;
64854;SDS011;51321;50.428;8.378;2024-01-27T14:10:42;12.30;;;1.83;;
64854;SDS011;51321;50.428;8.378;2024-01-27T14:13:23;8.45;;;2.13;;
64854;SDS011;51321;50.428;8.378;2024-01-27T14:16:05;7.55;;;1.35;;
64854;SDS011;51321;50.428;8.378;2024-01-27T14:18:46;7.68;;;1.23;;
64854;SDS011;51321;50.428;8.378;2024-01-27T14:21:26;7.97;;;1.75;;
64854;SDS011;51321;50.428;8.378;2024-01-27T14:24:07;6.68;;;1.85;;
64854;SDS011;51321;50.428;8.378;2024-01-27T14:26:48;9.68;;;1.90;;
64854;SDS011;51321;50.428;8.378;2024-01-27T14:29:29;6.72;;;1.23;;
64854;SDS011;51321;50.428;8.378;2024-01-27T14:32:12;9.13;;;1.90;;
64854;SDS011;51321;50.428;8.378;2024-01-27T14:34:53;7.32;;;1.75;;
64854;SDS011;51321;50.428;8.378;2024-01-27T14:37:33;8.50;;;2.17;;
64854;SDS011;51321;50.428;8.378;2024-01-27T14:40:14;16.52;;;4.90;;
64854;SDS011;51321;50.428;8.378;2024-01-27T14:45:37;10.13;;;3.08;;
64854;SDS011;51321;50.428;8.378;2024-01-27T14:48:19;13.45;;;4.20;;
64854;SDS011;51321;50.428;8.378;2024-01-27T14:51:00;10.23;;;3.57;;
64854;SDS011;51321;50.428;8.378;2024-01-27T14:53:42;11.90;;;3.63;;
64854;SDS011;51321;50.428;8.378;2024-01-27T14:56:22;8.75;;;2.60;;
64854;SDS011;51321;50.428;8.378;2024-01-27T14:59:03;17.20;;;5.35;;
64854;SDS011;51321;50.428;8.378;2024-01-27T15:01:46;13.00;;;3.45;;
64854;SDS011;51321;50.428;8.378;2024-01-27T15:04:28;34.03;;;15.80;;
64854;SDS011;51321;50.428;8.378;2024-01-27T15:07:09;40.08;;;14.82;;
64854;SDS011;51321;50.428;8.378;2024-01-27T15:09:54;14.32;;;5.15;;
64854;SDS011;51321;50.428;8.378;2024-01-27T15:12:35;16.95;;;4.13;;
64854;SDS011;51321;50.428;8.378;2024-01-27T15:15:16;10.40;;;2.67;;
64854;SDS011;51321;50.428;8.378;2024-01-27T15:17:57;11.18;;;2.95;;
64854;SDS011;51321;50.428;8.378;2024-01-27T15:20:41;8.30;;;3.00;;
64854;SDS011;51321;50.428;8.378;2024-01-27T15:23:21;8.45;;;2.20;;
64854;SDS011;51321;50.428;8.378;2024-01-27T15:26:06;11.23;;;2.10;;
64854;SDS011;51321;50.428;8.378;2024-01-27T15:28:48;9.50;;;2.08;;
64854;SDS011;51321;50.428;8.378;2024-01-27T15:31:28;12.23;;;2.42;;
64854;SDS011;51321;50.428;8.378;2024-01-27T15:34:09;16.70;;;3.00;;
64854;SDS011;51321;50.428;8.378;2024-01-27T15:36:51;8.35;;;2.05;;
64854;SDS011;51321;50.428;8.378;2024-01-27T15:39:32;11.05;;;2.22;;
64854;SDS011;51321;50.428;8.378;2024-01-27T15:42:13;9.55;;;2.05;;
64854;SDS011;51321;50.428;8.378;2024-01-27T15:44:54;7.60;;;3.50;;
64854;SDS011;51321;50.428;8.378;2024-01-27T15:47:34;7.63;;;1.85;;
64854;SDS011;51321;50.428;8.378;2024-01-27T15:50:15;5.80;;;1.85;;
64854;SDS011;51321;50.428;8.378;2024-01-27T15:52:58;11.10;;;1.85;;
64854;SDS011;51321;50.428;8.378;2024-01-27T15:55:39;7.85;;;1.90;;
64854;SDS011;51321;50.428;8.378;2024-01-27T15:58:20;12.35;;;4.55;;
64854;SDS011;51321;50.428;8.378;2024-01-27T16:01:01;12.07;;;5.00;;
64854;SDS011;51321;50.428;8.378;2024-01-27T16:03:41;16.95;;;5.43;;
64854;SDS011;51321;50.428;8.378;2024-01-27T16:06:22;14.90;;;7.10;;
64854;SDS011;51321;50.428;8.378;2024-01-27T16:09:04;17.75;;;9.05;;
64854;SDS011;51321;50.428;8.378;2024-01-27T16:11:44;9.40;;;3.43;;
64854;SDS011;51321;50.428;8.378;2024-01-27T16:14:25;17.30;;;4.03;;